createdAt,value
2018-05-08T00:01:00.720Z,7.50
2018-05-08T00:03:28.987Z,4.80
2018-05-08T00:05:57.301Z,5.03
2018-05-08T00:08:25.566Z,4.90
2018-05-08T00:10:53.846Z,4.80
2018-05-08T00:13:22.111Z,4.83
2018-05-08T00:15:50.393Z,4.83
2018-05-08T00:18:18.653Z,5.00
2018-05-08T00:20:47.100Z,4.80
2018-05-08T00:23:15.345Z,5.23
2018-05-08T00:25:44.509Z,4.30
2018-05-08T00:28:13.703Z,4.57
2018-05-08T00:30:41.952Z,4.20
2018-05-08T00:33:10.234Z,7.40
2018-05-08T00:35:38.493Z,4.57
2018-05-08T00:38:06.789Z,5.10
2018-05-08T00:40:35.082Z,4.40
2018-05-08T00:43:04.130Z,5.67
2018-05-08T00:45:32.386Z,5.30
2018-05-08T00:48:00.670Z,6.60
2018-05-08T00:50:28.918Z,7.10
2018-05-08T00:52:57.200Z,6.27
2018-05-08T00:55:26.218Z,6.30
2018-05-08T00:57:54.511Z,6.37
2018-05-08T01:00:22.775Z,6.10
2018-05-08T01:02:51.031Z,7.17
2018-05-08T01:05:19.319Z,8.00
2018-05-08T01:07:47.568Z,6.17
2018-05-08T01:10:15.843Z,6.23
2018-05-08T01:12:44.102Z,6.73
2018-05-08T01:15:12.385Z,5.53
2018-05-08T01:17:40.652Z,6.50
2018-05-08T01:20:08.993Z,6.37
2018-05-08T01:22:37.229Z,7.27
2018-05-08T01:25:06.256Z,6.40
2018-05-08T01:27:35.326Z,6.30
2018-05-08T01:30:03.569Z,6.70
2018-05-08T01:32:31.857Z,5.80
2018-05-08T01:35:00.108Z,6.83
2018-05-08T01:37:28.889Z,7.70
2018-05-08T01:39:58.711Z,5.30
2018-05-08T01:42:28.199Z,7.03
2018-05-08T01:44:56.452Z,5.67
2018-05-08T01:47:25.465Z,6.70
2018-05-08T01:49:53.762Z,6.40
2018-05-08T01:52:22.018Z,6.07
2018-05-08T01:54:50.301Z,6.40
2018-05-08T01:57:18.634Z,6.57
2018-05-08T01:59:46.955Z,5.97
2018-05-08T02:02:15.207Z,6.00
2018-05-08T02:04:44.254Z,5.70
2018-05-08T02:07:12.517Z,5.73
2018-05-08T02:09:40.819Z,7.90
2018-05-08T02:12:09.887Z,6.47
2018-05-08T02:14:38.113Z,5.67
2018-05-08T02:17:06.391Z,6.60
2018-05-08T02:19:34.663Z,5.87
2018-05-08T02:22:02.948Z,5.77
2018-05-08T02:24:31.977Z,4.73
2018-05-08T02:27:00.819Z,5.23
2018-05-08T02:29:29.082Z,5.97
2018-05-08T02:31:57.365Z,5.47
2018-05-08T02:34:25.618Z,6.80
2018-05-08T02:36:54.832Z,5.57
2018-05-08T02:39:23.120Z,5.60
2018-05-08T02:41:51.379Z,7.63
2018-05-08T02:44:20.445Z,6.40
2018-05-08T02:46:49.470Z,6.87
2018-05-08T02:49:17.751Z,7.50
2018-05-08T02:51:46.005Z,6.30
2018-05-08T02:54:14.338Z,6.00
2018-05-08T02:56:42.608Z,5.83
2018-05-08T02:59:10.876Z,5.67
2018-05-08T03:01:39.165Z,6.87
2018-05-08T03:04:07.436Z,7.10
2018-05-08T03:06:35.710Z,6.03
2018-05-08T03:09:04.037Z,5.50
2018-05-08T03:11:32.310Z,6.10
2018-05-08T03:14:00.582Z,7.50
2018-05-08T03:16:28.871Z,6.77
2018-05-08T03:18:57.138Z,6.10
2018-05-08T03:21:26.174Z,5.90
2018-05-08T03:23:54.503Z,5.93
2018-05-08T03:26:22.763Z,5.87
2018-05-08T03:28:51.030Z,6.30
2018-05-08T03:31:19.281Z,6.60
2018-05-08T03:33:47.599Z,6.37
2018-05-08T03:36:16.615Z,6.93
2018-05-08T03:38:45.630Z,6.00
2018-05-08T03:41:13.910Z,6.27
2018-05-08T03:43:42.175Z,6.40
2018-05-08T03:46:11.905Z,8.63
2018-05-08T03:48:40.167Z,6.83
2018-05-08T03:51:09.233Z,6.10
2018-05-08T03:53:37.507Z,6.50
2018-05-08T03:56:05.781Z,6.13
2018-05-08T03:58:34.046Z,6.20
2018-05-08T04:01:14.050Z,6.60
2018-05-08T04:03:54.167Z,6.27
2018-05-08T04:06:56.047Z,6.50
2018-05-08T04:09:24.322Z,5.90
2018-05-08T04:11:52.610Z,9.73
2018-05-08T04:14:20.883Z,7.20
2018-05-08T04:16:49.954Z,6.77
2018-05-08T04:19:18.286Z,6.90
2018-05-08T04:21:47.275Z,7.33
2018-05-08T04:24:16.395Z,5.30
2018-05-08T04:26:44.670Z,6.20
2018-05-08T04:29:12.944Z,5.50
2018-05-08T04:31:41.190Z,6.10
2018-05-08T04:34:09.475Z,6.87
2018-05-08T04:36:38.510Z,6.10
2018-05-08T04:39:06.805Z,6.10
2018-05-08T04:41:35.063Z,6.33
2018-05-08T04:44:03.320Z,8.00
2018-05-08T04:46:31.602Z,7.30
2018-05-08T04:48:59.846Z,6.90
2018-05-08T04:51:28.893Z,7.83
2018-05-08T04:53:58.123Z,6.23
2018-05-08T04:56:26.422Z,7.20
2018-05-08T04:58:54.685Z,6.43
2018-05-08T05:01:22.974Z,7.07
2018-05-08T05:03:51.214Z,6.60
2018-05-08T05:06:19.539Z,7.13
2018-05-08T05:08:47.782Z,7.00
2018-05-08T05:11:16.050Z,6.83
2018-05-08T05:13:44.336Z,7.40
2018-05-08T05:16:12.598Z,8.40
2018-05-08T05:18:40.906Z,7.77
2018-05-08T05:21:09.184Z,8.50
2018-05-08T05:23:37.495Z,6.97
2018-05-08T05:26:06.530Z,8.20
2018-05-08T05:28:34.813Z,6.67
2018-05-08T05:31:03.089Z,6.57
2018-05-08T05:33:31.415Z,7.23
2018-05-08T05:35:59.667Z,7.70
2018-05-08T05:38:28.776Z,7.33
2018-05-08T05:40:57.042Z,7.20
2018-05-08T05:43:25.299Z,7.00
2018-05-08T05:45:53.595Z,7.73
2018-05-08T05:48:21.878Z,8.53
2018-05-08T05:50:50.163Z,6.60
2018-05-08T05:53:18.432Z,7.03
2018-05-08T05:55:46.714Z,7.00
2018-05-08T05:58:15.871Z,7.70
2018-05-08T06:00:44.161Z,6.80
2018-05-08T06:03:12.422Z,6.50
2018-05-08T06:05:42.400Z,7.13
2018-05-08T06:08:11.433Z,7.40
2018-05-08T06:10:39.721Z,7.50
2018-05-08T06:13:07.970Z,6.57
2018-05-08T06:15:36.257Z,6.97
2018-05-08T06:18:05.433Z,7.10
2018-05-08T06:20:34.501Z,7.83
2018-05-08T06:23:02.751Z,7.40
2018-05-08T06:25:31.013Z,6.90
2018-05-08T06:27:59.312Z,6.77
2018-05-08T06:30:27.600Z,7.63
2018-05-08T06:32:55.878Z,6.50
2018-05-08T06:35:24.134Z,6.67
2018-05-08T06:37:52.417Z,6.00
2018-05-08T06:40:20.666Z,6.57
2018-05-08T06:42:48.981Z,7.20
2018-05-08T06:45:17.225Z,6.53
2018-05-08T06:47:45.589Z,6.50
2018-05-08T06:50:13.842Z,6.37
2018-05-08T06:52:42.117Z,8.13
2018-05-08T06:55:10.368Z,5.60
2018-05-08T06:57:38.701Z,7.40
2018-05-08T07:00:06.931Z,6.70
2018-05-08T07:02:35.185Z,6.63
2018-05-08T07:05:04.256Z,6.67
2018-05-08T07:07:33.285Z,6.47
2018-05-08T07:10:01.585Z,6.87
2018-05-08T07:12:29.838Z,6.87
2018-05-08T07:14:58.157Z,6.27
2018-05-08T07:17:26.705Z,6.17
2018-05-08T07:19:54.934Z,6.73
2018-05-08T07:22:23.993Z,6.27
2018-05-08T07:24:52.254Z,7.10
2018-05-08T07:27:20.566Z,6.80
2018-05-08T07:29:48.806Z,6.10
2018-05-08T07:32:17.087Z,6.70
2018-05-08T07:34:45.375Z,5.50
2018-05-08T07:37:13.632Z,5.60
2018-05-08T07:39:41.933Z,6.70
2018-05-08T07:42:10.215Z,5.73
2018-05-08T07:44:38.491Z,4.60
2018-05-08T07:47:06.767Z,5.17
2018-05-08T07:49:35.499Z,4.80
2018-05-08T07:52:04.514Z,5.60
2018-05-08T07:54:33.328Z,6.00
2018-05-08T07:57:01.613Z,6.83
2018-05-08T07:59:29.863Z,5.37
2018-05-08T08:01:58.162Z,3.97
2018-05-08T08:04:26.440Z,4.47
2018-05-08T08:06:54.738Z,4.53
2018-05-08T08:09:23.034Z,3.53
2018-05-08T08:11:51.293Z,4.00
2018-05-08T08:14:19.584Z,3.60
2018-05-08T08:16:48.200Z,4.60
2018-05-08T08:19:17.261Z,3.30
2018-05-08T08:21:45.521Z,2.60
2018-05-08T08:24:13.900Z,3.23
2018-05-08T08:26:42.169Z,3.67
2018-05-08T08:29:10.570Z,16.23
2018-05-08T08:31:38.891Z,3.93
2018-05-08T08:34:07.161Z,3.40
2018-05-08T08:36:36.205Z,7.87
2018-05-08T08:39:04.523Z,4.63
2018-05-08T08:41:32.776Z,2.80
2018-05-08T08:44:01.075Z,3.47
2018-05-08T08:46:30.209Z,2.93
2018-05-08T08:48:58.397Z,3.10
2018-05-08T08:51:26.709Z,2.90
2018-05-08T08:53:54.988Z,3.00
2018-05-08T08:56:23.268Z,3.80
2018-05-08T08:58:51.530Z,3.23
2018-05-08T09:01:19.820Z,3.80
2018-05-08T09:03:48.085Z,3.10
2018-05-08T09:06:16.380Z,2.70
2018-05-08T09:08:44.644Z,2.80
2018-05-08T09:11:13.006Z,2.70
2018-05-08T09:13:42.006Z,3.70
2018-05-08T09:16:10.288Z,3.50
2018-05-08T09:18:38.596Z,3.40
2018-05-08T09:21:06.872Z,3.07
2018-05-08T09:23:35.973Z,5.47
2018-05-08T09:26:04.250Z,3.23
2018-05-08T09:28:32.526Z,3.33
2018-05-08T09:31:00.829Z,3.13
2018-05-08T09:33:29.856Z,4.37
2018-05-08T09:35:58.160Z,4.10
2018-05-08T09:38:26.413Z,3.20
2018-05-08T09:40:55.266Z,3.07
2018-05-08T09:43:24.316Z,3.20
2018-05-08T09:45:52.572Z,3.23
2018-05-08T09:48:21.634Z,3.37
2018-05-08T09:50:49.881Z,3.80
2018-05-08T09:53:18.170Z,3.70
2018-05-08T09:55:46.464Z,4.83
2018-05-08T09:58:14.757Z,3.57
2018-05-08T10:00:43.039Z,3.33
2018-05-08T10:03:11.322Z,3.70
2018-05-08T10:05:40.482Z,5.17
2018-05-08T10:08:08.739Z,3.80
2018-05-08T10:10:37.028Z,4.43
2018-05-08T10:13:06.096Z,2.90
2018-05-08T10:15:34.393Z,3.80
2018-05-08T10:18:02.775Z,3.10
2018-05-08T10:20:31.128Z,4.43
2018-05-08T10:22:59.400Z,3.83
2018-05-08T10:25:27.729Z,4.53
2018-05-08T10:27:56.777Z,3.63
2018-05-08T10:30:25.047Z,3.97
2018-05-08T10:32:53.346Z,3.83
2018-05-08T10:35:21.603Z,3.70
2018-05-08T10:37:49.891Z,5.23
2018-05-08T10:40:18.155Z,3.73
2018-05-08T10:42:46.518Z,3.97
2018-05-08T10:45:14.727Z,3.40
2018-05-08T10:47:43.114Z,4.10
2018-05-08T10:50:11.303Z,4.03
2018-05-08T10:52:40.240Z,4.43
2018-05-08T10:55:09.300Z,4.30
2018-05-08T10:57:37.576Z,3.50
2018-05-08T11:00:06.631Z,4.00
2018-05-08T11:02:34.903Z,3.23
2018-05-08T11:05:03.189Z,3.60
2018-05-08T11:07:31.451Z,3.60
2018-05-08T11:10:01.451Z,5.00
2018-05-08T11:12:29.845Z,3.80
2018-05-08T11:14:58.062Z,3.63
2018-05-08T11:17:26.340Z,4.10
2018-05-08T11:19:54.587Z,4.17
2018-05-08T11:22:22.907Z,4.27
2018-05-08T11:24:51.183Z,3.77
2018-05-08T11:27:20.340Z,6.57
2018-05-08T11:29:48.595Z,5.83
2018-05-08T11:32:16.923Z,8.00
2018-05-08T11:34:45.183Z,7.63
2018-05-08T11:37:13.447Z,10.90
2018-05-08T11:39:42.648Z,9.70
2018-05-08T11:42:10.934Z,7.77
2018-05-08T11:44:39.305Z,6.00
2018-05-08T11:47:07.514Z,4.80
2018-05-08T11:49:35.800Z,4.80
2018-05-08T11:52:04.923Z,5.10
2018-05-08T11:54:33.253Z,7.67
2018-05-08T11:57:01.542Z,5.27
2018-05-08T11:59:29.812Z,5.70
2018-05-08T12:01:58.125Z,7.70
2018-05-08T12:04:26.392Z,6.80
2018-05-08T12:06:55.364Z,6.70
2018-05-08T12:09:23.654Z,7.13
2018-05-08T12:11:52.668Z,8.27
2018-05-08T12:14:20.959Z,11.80
2018-05-08T12:16:49.249Z,5.80
2018-05-08T12:19:17.552Z,4.53
2018-05-08T12:21:45.921Z,5.13
2018-05-08T12:24:14.155Z,5.57
2018-05-08T12:26:42.482Z,4.50
2018-05-08T12:29:11.661Z,4.23
2018-05-08T12:31:39.912Z,3.40
2018-05-08T12:34:08.206Z,3.07
2018-05-08T12:36:37.272Z,3.40
2018-05-08T12:39:05.568Z,3.40
2018-05-08T12:41:34.096Z,3.13
2018-05-08T12:44:02.513Z,2.80
2018-05-08T12:46:31.512Z,3.60
2018-05-08T12:48:59.761Z,2.93
2018-05-08T12:51:28.073Z,3.13
2018-05-08T12:53:56.333Z,2.80
2018-05-08T12:56:24.624Z,2.70
2018-05-08T12:58:52.901Z,2.97
2018-05-08T13:01:21.179Z,6.50
2018-05-08T13:03:49.445Z,3.70
2018-05-08T13:06:17.716Z,3.33
2018-05-08T13:08:46.041Z,3.50
2018-05-08T13:11:14.325Z,2.67
2018-05-08T13:13:42.584Z,2.83
2018-05-08T13:16:12.409Z,2.30
2018-05-08T13:18:40.749Z,3.50
2018-05-08T13:21:09.041Z,3.23
2018-05-08T13:23:37.316Z,2.80
2018-05-08T13:26:05.594Z,2.50
2018-05-08T13:28:33.917Z,2.90
2018-05-08T13:31:02.227Z,3.00
2018-05-08T13:33:30.493Z,3.00
2018-05-08T13:35:59.521Z,2.80
2018-05-08T13:38:27.870Z,3.07
2018-05-08T13:40:56.948Z,3.00
2018-05-08T13:43:25.319Z,3.03
2018-05-08T13:45:54.525Z,2.70
2018-05-08T13:48:22.917Z,2.53
2018-05-08T13:50:51.991Z,3.23
2018-05-08T13:53:20.242Z,2.63
2018-05-08T13:55:48.837Z,3.10
2018-05-08T13:58:17.824Z,3.15
2018-05-08T14:00:46.113Z,2.77
2018-05-08T14:03:14.391Z,2.63
2018-05-08T14:05:42.661Z,2.73
2018-05-08T14:08:11.098Z,2.60
2018-05-08T14:10:39.393Z,2.90
2018-05-08T14:13:07.738Z,3.00
2018-05-08T14:15:35.991Z,2.33
2018-05-08T14:18:04.326Z,2.70
2018-05-08T14:20:32.608Z,2.60
2018-05-08T14:23:00.916Z,3.60
2018-05-08T14:25:29.219Z,2.57
2018-05-08T14:27:58.259Z,2.40
2018-05-08T14:30:26.578Z,3.07
2018-05-08T14:32:54.941Z,2.70
2018-05-08T14:35:23.421Z,2.90
2018-05-08T14:37:51.788Z,2.90
2018-05-08T14:40:20.431Z,6.27
2018-05-08T14:42:49.747Z,2.67
2018-05-08T14:45:18.144Z,3.27
2018-05-08T14:47:46.610Z,2.60
2018-05-08T14:50:15.915Z,2.37
2018-05-08T14:52:45.116Z,2.73
2018-05-08T14:55:13.576Z,3.30
2018-05-08T14:57:43.036Z,2.70
2018-05-08T15:00:11.634Z,2.40
2018-05-08T15:02:40.307Z,3.10
2018-05-08T15:05:08.559Z,2.80
2018-05-08T15:07:36.870Z,2.77
2018-05-08T15:10:05.170Z,2.30
2018-05-08T15:12:33.633Z,2.63
2018-05-08T15:15:02.057Z,2.93
2018-05-08T15:17:30.445Z,2.87
2018-05-08T15:19:59.877Z,2.80
2018-05-08T15:22:28.453Z,2.83
2018-05-08T15:24:56.900Z,3.03
2018-05-08T15:27:25.955Z,2.90
2018-05-08T15:29:54.430Z,2.40
2018-05-08T15:32:22.778Z,3.10
2018-05-08T15:34:51.992Z,2.77
2018-05-08T15:37:20.287Z,3.53
2018-05-08T15:39:49.465Z,3.07
2018-05-08T15:42:17.775Z,2.43
2018-05-08T15:44:46.971Z,2.77
2018-05-08T15:47:15.458Z,2.77
2018-05-08T15:49:43.812Z,3.70
2018-05-08T15:52:12.240Z,3.00
2018-05-08T15:54:40.551Z,3.00
2018-05-08T15:57:08.862Z,3.07
2018-05-08T15:59:37.139Z,3.50
2018-05-08T16:02:05.489Z,2.60
2018-05-08T16:04:33.700Z,3.63
2018-05-08T16:07:01.953Z,3.73
2018-05-08T16:09:30.243Z,2.70
2018-05-08T16:11:58.565Z,4.23
2018-05-08T16:14:26.945Z,3.23
2018-05-08T16:16:55.249Z,2.93
2018-05-08T16:19:24.302Z,2.63
2018-05-08T16:21:52.610Z,4.93
2018-05-08T16:24:20.935Z,2.60
2018-05-08T16:26:49.902Z,3.00
2018-05-08T16:29:18.950Z,2.93
2018-05-08T16:31:47.253Z,4.80
2018-05-08T16:34:15.495Z,2.80
2018-05-08T16:36:43.767Z,2.87
2018-05-08T16:39:12.061Z,3.13
2018-05-08T16:41:40.328Z,2.73
2018-05-08T16:44:08.706Z,2.70
2018-05-08T16:46:36.991Z,2.80
2018-05-08T16:49:05.306Z,2.80
2018-05-08T16:51:33.579Z,3.20
2018-05-08T16:54:02.651Z,4.90
2018-05-08T16:56:30.997Z,3.30
2018-05-08T16:58:59.460Z,3.90
2018-05-08T17:01:27.782Z,3.30
2018-05-08T17:03:56.276Z,3.40
2018-05-08T17:09:17.387Z,2.73
2018-05-08T17:11:45.799Z,3.80
2018-05-08T17:14:14.087Z,3.30
2018-05-08T17:16:42.343Z,5.70
2018-05-08T17:19:10.853Z,4.67
2018-05-08T17:21:38.929Z,3.37
2018-05-08T17:24:08.039Z,3.57
2018-05-08T17:26:37.074Z,3.00
2018-05-08T17:29:05.348Z,3.40
2018-05-08T17:31:34.513Z,3.23
2018-05-08T17:34:03.538Z,3.43
2018-05-08T17:36:31.836Z,3.20
2018-05-08T17:39:00.140Z,4.57
2018-05-08T17:41:28.441Z,3.63
2018-05-08T17:43:56.685Z,3.60
2018-05-08T17:46:24.973Z,3.33
2018-05-08T17:48:53.326Z,4.30
2018-05-08T17:51:21.564Z,3.40
2018-05-08T17:53:49.874Z,3.63
2018-05-08T17:56:18.159Z,3.27
2018-05-08T17:58:46.514Z,5.03
2018-05-08T18:01:14.826Z,3.00
2018-05-08T18:03:43.164Z,3.13
2018-05-08T18:06:11.541Z,3.70
2018-05-08T18:08:39.809Z,3.30
2018-05-08T18:11:09.096Z,3.40
2018-05-08T18:13:37.401Z,3.50
2018-05-08T18:16:05.695Z,3.40
2018-05-08T18:18:33.966Z,3.40
2018-05-08T18:21:03.058Z,5.10
2018-05-08T18:23:32.115Z,3.63
2018-05-08T18:26:01.167Z,3.60
2018-05-08T18:28:29.472Z,4.37
2018-05-08T18:30:58.712Z,4.43
2018-05-08T18:33:27.046Z,3.60
2018-05-08T18:35:55.339Z,3.33
2018-05-08T18:38:23.654Z,3.63
2018-05-08T18:40:51.933Z,3.43
2018-05-08T18:43:20.276Z,5.00
2018-05-08T18:45:48.619Z,3.40
2018-05-08T18:48:16.870Z,3.73
2018-05-08T18:50:45.383Z,4.03
2018-05-08T18:53:13.724Z,4.70
2018-05-08T18:55:42.797Z,3.73
2018-05-08T18:58:11.073Z,4.00
2018-05-08T19:00:45.141Z,3.60
2018-05-08T19:03:13.423Z,3.37
2018-05-08T19:05:42.875Z,3.30
2018-05-08T19:08:11.521Z,3.17
2018-05-08T19:10:39.930Z,3.47
2018-05-08T19:13:08.265Z,4.50
2018-05-08T19:15:42.354Z,6.73
2018-05-08T19:18:10.724Z,3.50
2018-05-08T19:20:39.095Z,3.73
2018-05-08T19:23:08.315Z,3.40
2018-05-08T19:25:37.436Z,3.60
2018-05-08T19:41:32.124Z,4.47
2018-05-08T19:44:02.255Z,4.50
2018-05-08T19:46:30.843Z,4.37
2018-05-08T19:48:59.160Z,5.30
2018-05-08T19:51:27.517Z,6.30
2018-05-08T19:53:55.863Z,5.50
2018-05-08T19:56:24.158Z,6.40
2018-05-08T19:58:52.477Z,6.27
2018-05-08T20:01:20.801Z,6.90
2018-05-08T20:03:49.122Z,10.50
2018-05-08T20:06:17.418Z,8.30
2018-05-08T20:08:45.921Z,7.53
2018-05-08T20:11:14.831Z,8.50
2018-05-08T20:13:44.061Z,8.77
2018-05-08T20:16:12.438Z,9.40
2018-05-08T20:18:42.884Z,10.47
2018-05-08T20:23:54.047Z,9.63
2018-05-08T20:26:25.952Z,13.97
2018-05-08T20:28:55.052Z,32.42
2018-05-08T20:31:25.336Z,12.50
2018-05-08T20:33:54.830Z,8.40
2018-05-08T20:36:23.231Z,8.07
2018-05-08T20:38:51.873Z,8.50
2018-05-08T20:41:21.124Z,7.50
2018-05-08T20:43:50.557Z,7.47
2018-05-08T20:46:19.730Z,6.70
2018-05-08T20:48:48.204Z,9.70
2018-05-08T20:51:16.620Z,8.30
2018-05-08T20:53:45.020Z,8.93
2018-05-08T20:56:13.416Z,7.00
2018-05-08T20:58:41.736Z,7.13
2018-05-08T21:01:10.084Z,7.40
2018-05-08T21:03:38.353Z,7.10
2018-05-08T21:06:06.682Z,6.53
2018-05-08T21:08:34.993Z,8.33
2018-05-08T21:11:04.113Z,6.73
2018-05-08T21:13:32.461Z,7.30
2018-05-08T21:16:01.066Z,7.60
2018-05-08T21:18:30.234Z,9.00
2018-05-08T21:20:58.604Z,7.80
2018-05-08T21:23:26.872Z,7.07
2018-05-08T21:25:55.147Z,7.27
2018-05-08T21:28:29.110Z,7.10
2018-05-08T21:31:03.173Z,7.77
2018-05-08T21:33:31.553Z,7.87
2018-05-08T21:35:59.866Z,7.50
2018-05-08T21:38:28.191Z,8.00
2018-05-08T21:40:56.546Z,8.30
2018-05-08T21:43:25.141Z,8.70
2018-05-08T21:45:53.425Z,8.70
2018-05-08T21:48:21.742Z,8.00
2018-05-08T21:50:50.000Z,8.47
2018-05-08T21:53:18.262Z,7.63
2018-05-08T21:55:46.551Z,7.13
2018-05-08T21:58:15.575Z,8.47
2018-05-08T22:00:43.866Z,7.30
2018-05-08T22:03:12.151Z,9.47
2018-05-08T22:05:41.226Z,7.17
2018-05-08T22:08:09.502Z,6.90
2018-05-08T22:10:37.796Z,6.20
2018-05-08T22:13:06.927Z,6.80
2018-05-08T22:15:35.175Z,6.23
2018-05-08T22:18:04.230Z,6.70
2018-05-08T22:20:32.541Z,5.90
2018-05-08T22:23:00.847Z,6.23
2018-05-08T22:25:29.877Z,7.70
2018-05-08T22:27:58.222Z,5.53
2018-05-08T22:30:27.290Z,6.60
2018-05-08T22:32:55.886Z,6.17
2018-05-08T22:35:25.068Z,6.23
2018-05-08T22:37:53.323Z,6.20
2018-05-08T22:40:21.605Z,6.10
2018-05-08T22:42:49.870Z,5.80
2018-05-08T22:45:20.618Z,5.80
2018-05-08T22:47:48.875Z,5.97
2018-05-08T22:50:17.177Z,5.60
2018-05-08T22:52:45.434Z,5.37
2018-05-08T22:55:13.861Z,4.90
2018-05-08T22:57:42.155Z,8.67
2018-05-08T23:00:11.184Z,5.47
2018-05-08T23:02:39.979Z,5.40
2018-05-08T23:05:08.244Z,5.70
2018-05-08T23:07:36.544Z,5.80
2018-05-08T23:10:04.790Z,5.53
2018-05-08T23:12:33.063Z,5.40
2018-05-08T23:15:01.340Z,5.40
2018-05-08T23:17:29.601Z,4.97
2018-05-08T23:19:58.655Z,5.00
2018-05-08T23:22:26.907Z,4.60
2018-05-08T23:24:55.208Z,5.20
2018-05-08T23:27:23.472Z,4.93
2018-05-08T23:29:51.769Z,8.70
2018-05-08T23:32:20.028Z,5.53
2018-05-08T23:34:48.275Z,5.43
2018-05-08T23:37:16.557Z,5.60
2018-05-08T23:39:44.905Z,8.93
2018-05-08T23:42:13.133Z,5.40
2018-05-08T23:44:41.385Z,5.57
2018-05-08T23:47:09.688Z,5.27
2018-05-08T23:49:38.579Z,5.10
2018-05-08T23:52:07.670Z,4.83
2018-05-08T23:54:35.954Z,5.60
2018-05-08T23:57:04.219Z,5.73
2018-05-08T23:59:32.504Z,5.33
